sensor_id;sensor_type;location;lat;lon;timestamp;pressure;altitude;pressure_sealevel;temperature;humidity
9853;BME280;4965;43.238;27.864;2022-11-20T00:01:16;99974.47;;;17.29;100.00
9853;BME280;4965;43.238;27.864;2022-11-20T00:03:44;99965.91;;;17.33;100.00
9853;BME280;4965;43.238;27.864;2022-11-20T00:06:14;99957.66;;;17.43;100.00
9853;BME280;4965;43.238;27.864;2022-11-20T00:08:41;99963.09;;;17.49;100.00
9853;BME280;4965;43.238;27.864;2022-11-20T00:11:10;99939.47;;;17.38;100.00
9853;BME280;4965;43.238;27.864;2022-11-20T00:13:37;99944.13;;;17.44;100.00
9853;BME280;4965;43.238;27.864;2022-11-20T00:16:06;99939.69;;;17.37;100.00
9853;BME280;4965;43.238;27.864;2022-11-20T00:18:34;99941.03;;;17.33;100.00
9853;BME280;4965;43.238;27.864;2022-11-20T00:21:02;99944.66;;;17.40;100.00
9853;BME280;4965;43.238;27.864;2022-11-20T00:23:30;99948.84;;;17.34;100.00
9853;BME280;4965;43.238;27.864;2022-11-20T00:26:01;99942.50;;;17.35;100.00
9853;BME280;4965;43.238;27.864;2022-11-20T00:28:28;99950.38;;;17.37;100.00
9853;BME280;4965;43.238;27.864;2022-11-20T00:31:00;99942.78;;;17.26;100.00
9853;BME280;4965;43.238;27.864;2022-11-20T00:33:27;99937.44;;;17.26;100.00
9853;BME280;4965;43.238;27.864;2022-11-20T00:35:59;99948.38;;;17.31;100.00
9853;BME280;4965;43.238;27.864;2022-11-20T00:38:26;99941.03;;;17.33;100.00
9853;BME280;4965;43.238;27.864;2022-11-20T00:40:56;99941.22;;;17.31;100.00
9853;BME280;4965;43.238;27.864;2022-11-20T00:43:23;99950.72;;;17.34;100.00
9853;BME280;4965;43.238;27.864;2022-11-20T00:45:50;99928.16;;;16.91;100.00
9853;BME280;4965;43.238;27.864;2022-11-20T00:48:17;99933.25;;;17.00;100.00
9853;BME280;4965;43.238;27.864;2022-11-20T00:50:44;99923.69;;;16.83;100.00
9853;BME280;4965;43.238;27.864;2022-11-20T00:53:10;99936.03;;;16.84;100.00
9853;BME280;4965;43.238;27.864;2022-11-20T00:55:37;99934.91;;;16.79;100.00
9853;BME280;4965;43.238;27.864;2022-11-20T00:58:05;99918.41;;;16.75;100.00
9853;BME280;4965;43.238;27.864;2022-11-20T01:00:32;99921.28;;;16.65;100.00
9853;BME280;4965;43.238;27.864;2022-11-20T01:02:59;99930.81;;;16.68;100.00
9853;BME280;4965;43.238;27.864;2022-11-20T01:05:26;99938.13;;;16.66;100.00
9853;BME280;4965;43.238;27.864;2022-11-20T01:07:53;99927.41;;;16.74;100.00
9853;BME280;4965;43.238;27.864;2022-11-20T01:10:20;99931.88;;;16.82;100.00
9853;BME280;4965;43.238;27.864;2022-11-20T01:12:46;99927.69;;;16.87;100.00
9853;BME280;4965;43.238;27.864;2022-11-20T01:15:35;99934.19;;;16.85;100.00
9853;BME280;4965;43.238;27.864;2022-11-20T01:18:02;99923.78;;;16.98;100.00
9853;BME280;4965;43.238;27.864;2022-11-20T01:20:29;99923.53;;;17.07;100.00
9853;BME280;4965;43.238;27.864;2022-11-20T01:22:56;99927.81;;;17.17;100.00
9853;BME280;4965;43.238;27.864;2022-11-20T01:25:22;99927.13;;;17.14;100.00
9853;BME280;4965;43.238;27.864;2022-11-20T01:27:49;99931.81;;;17.35;100.00
9853;BME280;4965;43.238;27.864;2022-11-20T01:30:16;99931.94;;;17.42;100.00
9853;BME280;4965;43.238;27.864;2022-11-20T01:32:44;99935.97;;;17.38;100.00
9853;BME280;4965;43.238;27.864;2022-11-20T01:35:11;99941.09;;;17.47;100.00
9853;BME280;4965;43.238;27.864;2022-11-20T01:37:38;99934.72;;;17.48;100.00
9853;BME280;4965;43.238;27.864;2022-11-20T01:40:06;99934.50;;;17.35;100.00
9853;BME280;4965;43.238;27.864;2022-11-20T01:42:32;99932.56;;;17.29;100.00
9853;BME280;4965;43.238;27.864;2022-11-20T01:45:56;99927.75;;;17.25;100.00
9853;BME280;4965;43.238;27.864;2022-11-20T01:48:28;99926.00;;;17.32;100.00
9853;BME280;4965;43.238;27.864;2022-11-20T01:50:57;99915.63;;;17.37;100.00
9853;BME280;4965;43.238;27.864;2022-11-20T01:53:28;99933.91;;;17.48;100.00
9853;BME280;4965;43.238;27.864;2022-11-20T01:55:59;99940.88;;;17.57;100.00
9853;BME280;4965;43.238;27.864;2022-11-20T01:58:30;99941.00;;;17.55;100.00
9853;BME280;4965;43.238;27.864;2022-11-20T02:00:59;99944.19;;;17.59;100.00
9853;BME280;4965;43.238;27.864;2022-11-20T02:03:27;99934.69;;;17.34;100.00
9853;BME280;4965;43.238;27.864;2022-11-20T02:05:59;99932.97;;;17.41;100.00
9853;BME280;4965;43.238;27.864;2022-11-20T02:08:28;99934.72;;;17.48;100.00
9853;BME280;4965;43.238;27.864;2022-11-20T02:10:56;99927.66;;;17.55;100.00
9853;BME280;4965;43.238;27.864;2022-11-20T02:13:22;99927.66;;;17.55;100.00
9853;BME280;4965;43.238;27.864;2022-11-20T02:16:09;99927.78;;;17.39;100.00
9853;BME280;4965;43.238;27.864;2022-11-20T02:18:38;99932.44;;;17.45;100.00
9853;BME280;4965;43.238;27.864;2022-11-20T02:21:07;99927.69;;;17.33;100.00
9853;BME280;4965;43.238;27.864;2022-11-20T02:23:39;99933.50;;;17.36;100.00
9853;BME280;4965;43.238;27.864;2022-11-20T02:26:13;99936.47;;;17.41;100.00
9853;BME280;4965;43.238;27.864;2022-11-20T02:28:41;99909.97;;;17.32;100.00
9853;BME280;4965;43.238;27.864;2022-11-20T02:31:08;99929.19;;;17.50;100.00
9853;BME280;4965;43.238;27.864;2022-11-20T02:33:35;99937.69;;;17.53;100.00
9853;BME280;4965;43.238;27.864;2022-11-20T02:36:02;99924.31;;;17.53;100.00
9853;BME280;4965;43.238;27.864;2022-11-20T02:38:29;99924.69;;;17.50;100.00
9853;BME280;4965;43.238;27.864;2022-11-20T02:40:56;99927.31;;;17.58;100.00
9853;BME280;4965;43.238;27.864;2022-11-20T02:43:24;99927.31;;;17.58;100.00
9853;BME280;4965;43.238;27.864;2022-11-20T02:45:51;99928.78;;;17.61;100.00
9853;BME280;4965;43.238;27.864;2022-11-20T02:48:17;99925.31;;;17.60;100.00
9853;BME280;4965;43.238;27.864;2022-11-20T02:50:44;99907.09;;;17.56;100.00
9853;BME280;4965;43.238;27.864;2022-11-20T02:53:11;99906.78;;;17.59;100.00
9853;BME280;4965;43.238;27.864;2022-11-20T02:55:38;99914.72;;;17.67;100.00
9853;BME280;4965;43.238;27.864;2022-11-20T02:58:05;99901.34;;;17.67;100.00
9853;BME280;4965;43.238;27.864;2022-11-20T03:00:33;99907.53;;;17.68;100.00
9853;BME280;4965;43.238;27.864;2022-11-20T03:03:01;99897.41;;;17.55;100.00
9853;BME280;4965;43.238;27.864;2022-11-20T03:05:28;99903.25;;;17.58;100.00
9853;BME280;4965;43.238;27.864;2022-11-20T03:07:54;99912.44;;;17.56;100.00
9853;BME280;4965;43.238;27.864;2022-11-20T03:10:21;99920.88;;;17.68;100.00
9853;BME280;4965;43.238;27.864;2022-11-20T03:12:52;99911.63;;;17.55;100.00
9853;BME280;4965;43.238;27.864;2022-11-20T03:15:19;99907.94;;;17.56;100.00
9853;BME280;4965;43.238;27.864;2022-11-20T03:17:47;99906.28;;;17.55;100.00
9853;BME280;4965;43.238;27.864;2022-11-20T03:20:14;99903.50;;;17.49;100.00
9853;BME280;4965;43.238;27.864;2022-11-20T03:22:41;99897.50;;;17.47;100.00
9853;BME280;4965;43.238;27.864;2022-11-20T03:25:08;99901.06;;;17.39;100.00
9853;BME280;4965;43.238;27.864;2022-11-20T03:27:35;99889.53;;;17.39;100.00
9853;BME280;4965;43.238;27.864;2022-11-20T03:30:03;99894.44;;;17.50;100.00
9853;BME280;4965;43.238;27.864;2022-11-20T03:32:30;99897.78;;;17.52;100.00
9853;BME280;4965;43.238;27.864;2022-11-20T03:34:59;99884.81;;;17.49;100.00
9853;BME280;4965;43.238;27.864;2022-11-20T03:37:25;99888.09;;;17.51;100.00
9853;BME280;4965;43.238;27.864;2022-11-20T03:39:52;99892.56;;;17.58;100.00
9853;BME280;4965;43.238;27.864;2022-11-20T03:42:19;99893.06;;;17.54;100.00
9853;BME280;4965;43.238;27.864;2022-11-20T03:45:04;99872.06;;;17.51;100.00
9853;BME280;4965;43.238;27.864;2022-11-20T03:47:31;99879.31;;;17.42;100.00
9853;BME280;4965;43.238;27.864;2022-11-20T03:49:59;99878.63;;;17.48;100.00
9853;BME280;4965;43.238;27.864;2022-11-20T03:52:25;99878.16;;;17.45;100.00
9853;BME280;4965;43.238;27.864;2022-11-20T03:54:52;99877.50;;;17.43;100.00
9853;BME280;4965;43.238;27.864;2022-11-20T03:57:19;99885.72;;;17.41;100.00
9853;BME280;4965;43.238;27.864;2022-11-20T03:59:46;99870.31;;;17.43;100.00
9853;BME280;4965;43.238;27.864;2022-11-20T04:02:13;99870.69;;;17.40;100.00
9853;BME280;4965;43.238;27.864;2022-11-20T04:04:39;99875.03;;;17.41;100.00
9853;BME280;4965;43.238;27.864;2022-11-20T04:07:08;99871.50;;;17.41;100.00
9853;BME280;4965;43.238;27.864;2022-11-20T04:09:35;99872.22;;;17.35;100.00
9853;BME280;4965;43.238;27.864;2022-11-20T04:12:02;99858.59;;;17.30;100.00
9853;BME280;4965;43.238;27.864;2022-11-20T04:14:28;99861.16;;;17.38;100.00
9853;BME280;4965;43.238;27.864;2022-11-20T04:16:55;99850.47;;;17.38;100.00
9853;BME280;4965;43.238;27.864;2022-11-20T04:19:22;99836.41;;;17.44;100.00
9853;BME280;4965;43.238;27.864;2022-11-20T04:21:49;99846.72;;;17.47;100.00
9853;BME280;4965;43.238;27.864;2022-11-20T04:24:17;99836.03;;;17.47;100.00
9853;BME280;4965;43.238;27.864;2022-11-20T04:26:44;99827.09;;;17.54;100.00
9853;BME280;4965;43.238;27.864;2022-11-20T04:29:11;99838.28;;;17.58;100.00
9853;BME280;4965;43.238;27.864;2022-11-20T04:31:38;99843.91;;;17.63;100.00
9853;BME280;4965;43.238;27.864;2022-11-20T04:34:06;99834.13;;;17.55;100.00
9853;BME280;4965;43.238;27.864;2022-11-20T04:36:33;99834.03;;;17.49;100.00
9853;BME280;4965;43.238;27.864;2022-11-20T04:39:01;99832.66;;;17.53;100.00
9853;BME280;4965;43.238;27.864;2022-11-20T04:41:32;99837.28;;;17.59;100.00
9853;BME280;4965;43.238;27.864;2022-11-20T04:44:00;99842.03;;;17.49;100.00
9853;BME280;4965;43.238;27.864;2022-11-20T04:46:30;99836.03;;;17.47;100.00
9853;BME280;4965;43.238;27.864;2022-11-20T04:48:57;99843.34;;;17.53;100.00
9853;BME280;4965;43.238;27.864;2022-11-20T04:51:24;99853.00;;;17.54;100.00
9853;BME280;4965;43.238;27.864;2022-11-20T04:53:51;99844.25;;;17.45;100.00
9853;BME280;4965;43.238;27.864;2022-11-20T04:56:18;99847.06;;;17.67;100.00
9853;BME280;4965;43.238;27.864;2022-11-20T04:58:46;99848.81;;;17.74;100.00
9853;BME280;4965;43.238;27.864;2022-11-20T05:01:15;99846.50;;;17.71;100.00
9853;BME280;4965;43.238;27.864;2022-11-20T05:03:43;99831.75;;;17.60;100.00
9853;BME280;4965;43.238;27.864;2022-11-20T05:06:12;99834.53;;;17.82;100.00
9853;BME280;4965;43.238;27.864;2022-11-20T05:08:39;99825.13;;;17.71;100.00
9853;BME280;4965;43.238;27.864;2022-11-20T05:11:08;99843.63;;;17.73;100.00
9853;BME280;4965;43.238;27.864;2022-11-20T05:13:36;99849.56;;;17.68;100.00
9853;BME280;4965;43.238;27.864;2022-11-20T05:16:06;99857.75;;;17.67;100.00
9853;BME280;4965;43.238;27.864;2022-11-20T05:18:33;99857.75;;;17.67;100.00
9853;BME280;4965;43.238;27.864;2022-11-20T05:21:00;99838.94;;;17.60;100.00
9853;BME280;4965;43.238;27.864;2022-11-20T05:23:29;99860.25;;;17.68;100.00
9853;BME280;4965;43.238;27.864;2022-11-20T05:25:57;99852.00;;;17.55;100.00
9853;BME280;4965;43.238;27.864;2022-11-20T05:28:24;99844.09;;;17.61;100.00
9853;BME280;4965;43.238;27.864;2022-11-20T05:30:51;99848.69;;;17.53;100.00
9853;BME280;4965;43.238;27.864;2022-11-20T05:33:20;99854.63;;;17.63;100.00
9853;BME280;4965;43.238;27.864;2022-11-20T05:35:47;99863.19;;;17.58;100.00
9853;BME280;4965;43.238;27.864;2022-11-20T05:38:14;99862.22;;;17.51;100.00
9853;BME280;4965;43.238;27.864;2022-11-20T05:40:41;99866.97;;;17.64;100.00
9853;BME280;4965;43.238;27.864;2022-11-20T05:43:08;99879.69;;;17.77;100.00
9853;BME280;4965;43.238;27.864;2022-11-20T05:45:35;99873.94;;;17.65;100.00
9853;BME280;4965;43.238;27.864;2022-11-20T05:48:02;99875.63;;;17.66;100.00
9853;BME280;4965;43.238;27.864;2022-11-20T05:50:30;99868.19;;;17.76;100.00
9853;BME280;4965;43.238;27.864;2022-11-20T05:52:58;99876.84;;;17.93;100.00
9853;BME280;4965;43.238;27.864;2022-11-20T05:55:24;99879.88;;;17.75;100.00
9853;BME280;4965;43.238;27.864;2022-11-20T05:57:52;99878.88;;;17.91;100.00
9853;BME280;4965;43.238;27.864;2022-11-20T06:00:19;99877.66;;;17.93;100.00
9853;BME280;4965;43.238;27.864;2022-11-20T06:02:46;99886.22;;;18.03;100.00
9853;BME280;4965;43.238;27.864;2022-11-20T06:05:13;99869.56;;;18.01;100.00
9853;BME280;4965;43.238;27.864;2022-11-20T06:07:41;99894.44;;;18.02;100.00
9853;BME280;4965;43.238;27.864;2022-11-20T06:10:08;99883.13;;;18.15;100.00
9853;BME280;4965;43.238;27.864;2022-11-20T06:12:35;99890.13;;;18.30;100.00
9853;BME280;4965;43.238;27.864;2022-11-20T06:15:02;99878.19;;;18.33;100.00
9853;BME280;4965;43.238;27.864;2022-11-20T06:17:29;99877.53;;;18.45;100.00
9853;BME280;4965;43.238;27.864;2022-11-20T06:19:56;99885.09;;;18.42;100.00
9853;BME280;4965;43.238;27.864;2022-11-20T06:22:23;99889.16;;;18.52;100.00
9853;BME280;4965;43.238;27.864;2022-11-20T06:24:51;99900.00;;;18.66;100.00
9853;BME280;4965;43.238;27.864;2022-11-20T06:27:18;99885.69;;;18.73;100.00
9853;BME280;4965;43.238;27.864;2022-11-20T06:29:45;99889.25;;;18.59;100.00
9853;BME280;4965;43.238;27.864;2022-11-20T06:32:11;99887.84;;;18.48;100.00
9853;BME280;4965;43.238;27.864;2022-11-20T06:34:38;99882.69;;;18.47;100.00
9853;BME280;4965;43.238;27.864;2022-11-20T06:37:05;99892.31;;;18.56;100.00
9853;BME280;4965;43.238;27.864;2022-11-20T06:39:32;99897.28;;;18.59;100.00
9853;BME280;4965;43.238;27.864;2022-11-20T06:42:00;99887.72;;;18.71;100.00
9853;BME280;4965;43.238;27.864;2022-11-20T06:44:27;99893.31;;;18.91;100.00
9853;BME280;4965;43.238;27.864;2022-11-20T06:46:54;99891.25;;;18.93;100.00
9853;BME280;4965;43.238;27.864;2022-11-20T06:49:20;99893.31;;;18.91;100.00
9853;BME280;4965;43.238;27.864;2022-11-20T06:51:47;99888.19;;;19.17;100.00
9853;BME280;4965;43.238;27.864;2022-11-20T06:54:14;99888.50;;;19.29;100.00
9853;BME280;4965;43.238;27.864;2022-11-20T06:56:41;99886.31;;;19.39;100.00
9853;BME280;4965;43.238;27.864;2022-11-20T06:59:09;99880.84;;;19.47;100.00
9853;BME280;4965;43.238;27.864;2022-11-20T07:01:36;99883.72;;;19.45;100.00
9853;BME280;4965;43.238;27.864;2022-11-20T07:04:03;99890.50;;;18.99;100.00
9853;BME280;4965;43.238;27.864;2022-11-20T07:06:30;99892.06;;;18.93;100.00
9853;BME280;4965;43.238;27.864;2022-11-20T07:08:57;99889.47;;;19.00;100.00
9853;BME280;4965;43.238;27.864;2022-11-20T07:11:24;99882.34;;;19.07;100.00
9853;BME280;4965;43.238;27.864;2022-11-20T07:13:51;99886.59;;;19.01;100.00
9853;BME280;4965;43.238;27.864;2022-11-20T07:16:19;99892.09;;;19.15;100.00
9853;BME280;4965;43.238;27.864;2022-11-20T07:18:46;99892.53;;;19.18;100.00
9853;BME280;4965;43.238;27.864;2022-11-20T07:21:13;99888.69;;;19.27;100.00
9853;BME280;4965;43.238;27.864;2022-11-20T07:23:40;99887.34;;;19.38;100.00
9853;BME280;4965;43.238;27.864;2022-11-20T07:26:08;99873.19;;;19.44;100.00
9853;BME280;4965;43.238;27.864;2022-11-20T07:28:36;99890.13;;;19.44;100.00
9853;BME280;4965;43.238;27.864;2022-11-20T07:31:03;99877.59;;;19.52;100.00
9853;BME280;4965;43.238;27.864;2022-11-20T07:33:33;99885.97;;;19.70;100.00
9853;BME280;4965;43.238;27.864;2022-11-20T07:36:00;99891.97;;;19.72;100.00
9853;BME280;4965;43.238;27.864;2022-11-20T07:38:27;99886.88;;;19.83;100.00
9853;BME280;4965;43.238;27.864;2022-11-20T07:40:54;99888.84;;;19.96;100.00
9853;BME280;4965;43.238;27.864;2022-11-20T07:43:22;99882.91;;;20.07;100.00
9853;BME280;4965;43.238;27.864;2022-11-20T07:45:50;99879.94;;;20.30;100.00
9853;BME280;4965;43.238;27.864;2022-11-20T07:48:17;99878.53;;;20.34;100.00
9853;BME280;4965;43.238;27.864;2022-11-20T07:50:45;99869.22;;;20.30;100.00
9853;BME280;4965;43.238;27.864;2022-11-20T07:53:12;99871.19;;;20.15;100.00
9853;BME280;4965;43.238;27.864;2022-11-20T07:55:39;99868.22;;;20.03;100.00
9853;BME280;4965;43.238;27.864;2022-11-20T07:58:06;99870.09;;;20.09;100.00
9853;BME280;4965;43.238;27.864;2022-11-20T08:00:33;99871.25;;;19.93;100.00
9853;BME280;4965;43.238;27.864;2022-11-20T08:03:03;99875.00;;;19.99;100.00
9853;BME280;4965;43.238;27.864;2022-11-20T08:05:29;99882.22;;;19.98;100.00
9853;BME280;4965;43.238;27.864;2022-11-20T08:07:57;99881.59;;;19.96;100.00
9853;BME280;4965;43.238;27.864;2022-11-20T08:10:24;99883.47;;;19.96;100.00
9853;BME280;4965;43.238;27.864;2022-11-20T08:12:53;99886.34;;;19.94;100.00
9853;BME280;4965;43.238;27.864;2022-11-20T08:15:40;99881.41;;;19.98;100.00
9853;BME280;4965;43.238;27.864;2022-11-20T08:18:08;99880.00;;;20.09;100.00
9853;BME280;4965;43.238;27.864;2022-11-20T08:20:36;99885.25;;;20.23;100.00
9853;BME280;4965;43.238;27.864;2022-11-20T08:23:05;99886.16;;;20.37;100.00
9853;BME280;4965;43.238;27.864;2022-11-20T08:25:33;99875.88;;;20.47;100.00
9853;BME280;4965;43.238;27.864;2022-11-20T08:28:02;99877.13;;;20.51;100.00
9853;BME280;4965;43.238;27.864;2022-11-20T08:30:29;99873.41;;;20.46;100.00
9853;BME280;4965;43.238;27.864;2022-11-20T08:33:01;99880.44;;;20.47;100.00
9853;BME280;4965;43.238;27.864;2022-11-20T08:35:28;99889.53;;;20.52;100.00
9853;BME280;4965;43.238;27.864;2022-11-20T08:37:55;99883.56;;;20.50;100.00
9853;BME280;4965;43.238;27.864;2022-11-20T08:40:23;99870.72;;;20.52;100.00
9853;BME280;4965;43.238;27.864;2022-11-20T08:42:50;99874.25;;;20.53;100.00
9853;BME280;4965;43.238;27.864;2022-11-20T08:45:18;99863.50;;;20.46;100.00
9853;BME280;4965;43.238;27.864;2022-11-20T08:47:45;99864.09;;;20.41;100.00
9853;BME280;4965;43.238;27.864;2022-11-20T08:50:14;99859.31;;;20.37;100.00
9853;BME280;4965;43.238;27.864;2022-11-20T08:52:41;99848.13;;;20.27;100.00
9853;BME280;4965;43.238;27.864;2022-11-20T08:55:08;99869.81;;;20.32;100.00
9853;BME280;4965;43.238;27.864;2022-11-20T08:57:37;99857.34;;;20.18;100.00
9853;BME280;4965;43.238;27.864;2022-11-20T09:00:06;99856.09;;;20.14;100.00
9853;BME280;4965;43.238;27.864;2022-11-20T09:02:34;99857.38;;;20.24;100.00
9853;BME280;4965;43.238;27.864;2022-11-20T09:05:00;99852.16;;;20.10;100.00
9853;BME280;4965;43.238;27.864;2022-11-20T09:07:28;99863.38;;;20.26;100.00
9853;BME280;4965;43.238;27.864;2022-11-20T09:09:55;99851.81;;;20.26;100.00
9853;BME280;4965;43.238;27.864;2022-11-20T09:12:22;99855.78;;;20.30;100.00
9853;BME280;4965;43.238;27.864;2022-11-20T09:14:51;99856.97;;;20.27;100.00
9853;BME280;4965;43.238;27.864;2022-11-20T09:17:18;99841.28;;;20.24;100.00
9853;BME280;4965;43.238;27.864;2022-11-20T09:19:45;99847.94;;;20.28;100.00
9853;BME280;4965;43.238;27.864;2022-11-20T09:22:12;99854.38;;;20.40;100.00
9853;BME280;4965;43.238;27.864;2022-11-20T09:24:39;99848.63;;;20.50;100.00
9853;BME280;4965;43.238;27.864;2022-11-20T09:27:06;99850.09;;;20.53;100.00
9853;BME280;4965;43.238;27.864;2022-11-20T09:29:33;99844.53;;;20.54;100.00
9853;BME280;4965;43.238;27.864;2022-11-20T09:32:01;99853.94;;;20.37;100.00
9853;BME280;4965;43.238;27.864;2022-11-20T09:34:28;99843.63;;;20.34;100.00
9853;BME280;4965;43.238;27.864;2022-11-20T09:36:55;99842.81;;;20.40;100.00
9853;BME280;4965;43.238;27.864;2022-11-20T09:39:25;99850.66;;;20.41;100.00
9853;BME280;4965;43.238;27.864;2022-11-20T09:45:15;99834.97;;;20.45;100.00
9853;BME280;4965;43.238;27.864;2022-11-20T09:48:01;99827.59;;;20.54;100.00
9853;BME280;4965;43.238;27.864;2022-11-20T09:50:32;99829.84;;;20.57;100.00
9853;BME280;4965;43.238;27.864;2022-11-20T09:53:12;99825.50;;;20.62;100.00
9853;BME280;4965;43.238;27.864;2022-11-20T09:55:40;99815.00;;;20.67;100.00
9853;BME280;4965;43.238;27.864;2022-11-20T09:58:10;99800.75;;;20.73;100.00
9853;BME280;4965;43.238;27.864;2022-11-20T10:00:39;99809.00;;;20.65;100.00
9853;BME280;4965;43.238;27.864;2022-11-20T10:03:13;99805.31;;;20.79;100.00
9853;BME280;4965;43.238;27.864;2022-11-20T10:05:45;99816.28;;;20.84;100.00
9853;BME280;4965;43.238;27.864;2022-11-20T10:08:17;99815.66;;;20.96;100.00
9853;BME280;4965;43.238;27.864;2022-11-20T10:10:47;99801.59;;;20.93;100.00
9853;BME280;4965;43.238;27.864;2022-11-20T10:13:35;99798.72;;;20.88;100.00
9853;BME280;4965;43.238;27.864;2022-11-20T10:16:18;99796.25;;;21.00;100.00
9853;BME280;4965;43.238;27.864;2022-11-20T10:19:01;99771.22;;;20.80;100.00
9853;BME280;4965;43.238;27.864;2022-11-20T10:21:41;99778.25;;;20.94;100.00
9853;BME280;4965;43.238;27.864;2022-11-20T10:24:27;99761.09;;;21.02;100.00
9853;BME280;4965;43.238;27.864;2022-11-20T10:27:01;99754.47;;;20.91;100.00
9853;BME280;4965;43.238;27.864;2022-11-20T10:29:33;99761.91;;;21.02;100.00
9853;BME280;4965;43.238;27.864;2022-11-20T10:32:03;99767.50;;;21.14;100.00
9853;BME280;4965;43.238;27.864;2022-11-20T10:34:44;99758.59;;;20.93;100.00
9853;BME280;4965;43.238;27.864;2022-11-20T10:37:17;99750.31;;;20.62;100.00
9853;BME280;4965;43.238;27.864;2022-11-20T10:39:50;99766.69;;;20.80;100.00
9853;BME280;4965;43.238;27.864;2022-11-20T10:42:22;99765.22;;;20.71;100.00
9853;BME280;4965;43.238;27.864;2022-11-20T10:44:52;99745.59;;;20.84;100.00
9853;BME280;4965;43.238;27.864;2022-11-20T10:47:28;99753.66;;;20.77;100.00
9853;BME280;4965;43.238;27.864;2022-11-20T10:50:02;99763.78;;;20.75;100.00
9853;BME280;4965;43.238;27.864;2022-11-20T10:52:35;99759.44;;;20.68;100.00
9853;BME280;4965;43.238;27.864;2022-11-20T10:55:12;99753.00;;;20.62;100.00
9853;BME280;4965;43.238;27.864;2022-11-20T10:57:52;99750.13;;;20.57;100.00
9853;BME280;4965;43.238;27.864;2022-11-20T11:00:21;99738.97;;;20.60;100.00
9853;BME280;4965;43.238;27.864;2022-11-20T11:02:49;99742.88;;;20.51;100.00
9853;BME280;4965;43.238;27.864;2022-11-20T11:05:25;99743.50;;;20.53;100.00
9853;BME280;4965;43.238;27.864;2022-11-20T11:07:55;99759.00;;;20.71;100.00
9853;BME280;4965;43.238;27.864;2022-11-20T11:10:27;99736.91;;;20.49;100.00
9853;BME280;4965;43.238;27.864;2022-11-20T11:12:57;99737.34;;;20.66;100.00
9853;BME280;4965;43.238;27.864;2022-11-20T11:15:26;99746.22;;;20.73;100.00
9853;BME280;4965;43.238;27.864;2022-11-20T11:17:56;99754.06;;;20.74;100.00
9853;BME280;4965;43.238;27.864;2022-11-20T11:20:25;99753.22;;;20.93;100.00
9853;BME280;4965;43.238;27.864;2022-11-20T11:22:54;99750.16;;;20.97;100.00
9853;BME280;4965;43.238;27.864;2022-11-20T11:25:25;99741.03;;;21.11;100.00
9853;BME280;4965;43.238;27.864;2022-11-20T11:27:56;99759.84;;;20.98;100.00
9853;BME280;4965;43.238;27.864;2022-11-20T11:30:25;99756.13;;;20.79;100.00
9853;BME280;4965;43.238;27.864;2022-11-20T11:33:03;99756.13;;;20.92;100.00
9853;BME280;4965;43.238;27.864;2022-11-20T11:35:32;99740.00;;;20.85;100.00
9853;BME280;4965;43.238;27.864;2022-11-20T11:38:04;99746.00;;;20.87;100.00
9853;BME280;4965;43.238;27.864;2022-11-20T11:40:35;99759.66;;;20.92;100.00
9853;BME280;4965;43.238;27.864;2022-11-20T11:43:05;99762.75;;;20.83;100.00
9853;BME280;4965;43.238;27.864;2022-11-20T11:45:54;99762.31;;;20.66;100.00
9853;BME280;4965;43.238;27.864;2022-11-20T11:48:21;99770.38;;;20.79;100.00
9853;BME280;4965;43.238;27.864;2022-11-20T11:50:50;99764.38;;;20.64;100.00
9853;BME280;4965;43.238;27.864;2022-11-20T11:53:18;99783.38;;;20.63;100.00
9853;BME280;4965;43.238;27.864;2022-11-20T11:55:49;99774.72;;;20.61;100.00
9853;BME280;4965;43.238;27.864;2022-11-20T11:58:30;99772.81;;;20.48;100.00
9853;BME280;4965;43.238;27.864;2022-11-20T12:01:04;99778.84;;;20.50;100.00
9853;BME280;4965;43.238;27.864;2022-11-20T12:03:35;99791.00;;;20.46;100.00
9853;BME280;4965;43.238;27.864;2022-11-20T12:06:10;99789.94;;;20.40;100.00
9853;BME280;4965;43.238;27.864;2022-11-20T12:08:43;99747.13;;;20.19;100.00
9853;BME280;4965;43.238;27.864;2022-11-20T12:11:16;99774.28;;;20.57;100.00
9853;BME280;4965;43.238;27.864;2022-11-20T12:13:51;99781.28;;;20.52;100.00
9853;BME280;4965;43.238;27.864;2022-11-20T12:16:20;99778.63;;;20.65;100.00
9853;BME280;4965;43.238;27.864;2022-11-20T12:18:49;99781.09;;;20.66;100.00
9853;BME280;4965;43.238;27.864;2022-11-20T12:21:30;99777.16;;;20.62;100.00
9853;BME280;4965;43.238;27.864;2022-11-20T12:24:24;99774.06;;;20.59;100.00
9853;BME280;4965;43.238;27.864;2022-11-20T12:27:05;99771.00;;;20.68;100.00
9853;BME280;4965;43.238;27.864;2022-11-20T12:29:43;99772.25;;;20.72;100.00
9853;BME280;4965;43.238;27.864;2022-11-20T12:35:26;99773.22;;;20.38;100.00
9853;BME280;4965;43.238;27.864;2022-11-20T12:38:11;99763.94;;;20.34;100.00
9853;BME280;4965;43.238;27.864;2022-11-20T12:40:46;99748.44;;;20.30;100.00
9853;BME280;4965;43.238;27.864;2022-11-20T12:43:21;99758.88;;;20.18;100.00
9853;BME280;4965;43.238;27.864;2022-11-20T12:46:18;99758.31;;;20.29;100.00
9853;BME280;4965;43.238;27.864;2022-11-20T12:48:58;99765.38;;;20.43;100.00
9853;BME280;4965;43.238;27.864;2022-11-20T12:51:47;99775.72;;;20.47;100.00
9853;BME280;4965;43.238;27.864;2022-11-20T12:54:35;99764.13;;;20.33;100.00
9853;BME280;4965;43.238;27.864;2022-11-20T12:57:11;99777.69;;;20.25;100.00
9853;BME280;4965;43.238;27.864;2022-11-20T12:59:57;99778.72;;;20.24;100.00
9853;BME280;4965;43.238;27.864;2022-11-20T13:02:34;99767.38;;;20.22;100.00
9853;BME280;4965;43.238;27.864;2022-11-20T13:05:17;99776.41;;;20.14;100.00
9853;BME280;4965;43.238;27.864;2022-11-20T13:07:46;99763.41;;;20.11;100.00
9853;BME280;4965;43.238;27.864;2022-11-20T13:10:21;99763.41;;;20.11;100.00
9853;BME280;4965;43.238;27.864;2022-11-20T13:12:54;99762.59;;;20.17;100.00
9853;BME280;4965;43.238;27.864;2022-11-20T13:15:31;99763.44;;;20.24;100.00
9853;BME280;4965;43.238;27.864;2022-11-20T13:18:01;99769.44;;;20.26;100.00
9853;BME280;4965;43.238;27.864;2022-11-20T13:20:31;99757.88;;;20.19;100.00